Time;durP1;ratioP1;P1;durP2;ratioP2;P2;SDS_P1;SDS_P2;PMS_P1;PMS_P2;Temp;Humidity;BMP_temperature;BMP_pressure;BME280_temperature;BME280_humidity;BME280_pressure;Samples;Min_cycle;Max_cycle;Signal;HPM_P1;HPM_P2
2022/01/14 00:01:31;;;;;;;29.95;13.43;;;;;;;-1.85;55.49;101024.94;3147665;28;20217;-67
2022/01/14 00:03:03;;;;;;;30.70;13.63;;;;;;;-1.84;55.40;101016.44;3146860;28;20055;-67
2022/01/14 00:04:36;;;;;;;30.60;13.23;;;;;;;-1.85;55.34;101010.47;3143324;28;20863;-67
2022/01/14 00:06:06;;;;;;;31.17;13.20;;;;;;;-1.85;55.24;101005.38;3147396;28;20645;-67
2022/01/14 00:07:39;;;;;;;28.52;12.02;;;;;;;-1.82;55.20;101007.16;3145381;28;20128;-67
2022/01/14 00:09:12;;;;;;;29.83;13.50;;;;;;;-1.82;55.23;101007.16;3146835;28;21014;-67
2022/01/14 00:10:49;;;;;;;33.17;13.07;;;;;;;-2.00;55.06;100973.50;3147202;28;20789;-68
2022/01/14 00:12:26;;;;;;;26.17;11.73;;;;;;;-1.80;55.32;101014.81;3145366;28;20040;-68
2022/01/14 00:14:09;;;;;;;27.52;12.23;;;;;;;-1.83;55.00;101000.31;3148704;28;20132;-68
2022/01/14 00:15:41;;;;;;;26.95;12.40;;;;;;;-1.80;54.96;101013.16;3146868;28;20083;-68
2022/01/14 00:17:15;;;;;;;27.67;12.50;;;;;;;-1.78;54.82;101013.19;3147286;28;20147;-68
2022/01/14 00:18:46;;;;;;;31.23;12.80;;;;;;;-1.78;54.83;101006.38;3148128;28;20200;-67
2022/01/14 00:20:18;;;;;;;33.15;12.85;;;;;;;-1.77;54.72;101003.03;3146781;28;20055;-68
2022/01/14 00:21:50;;;;;;;26.13;11.30;;;;;;;-1.74;54.90;101015.88;3143306;28;20056;-69
2022/01/14 00:23:27;;;;;;;28.00;12.30;;;;;;;-1.75;54.77;101013.25;3148156;28;20509;-69
2022/01/14 00:32:24;;;;;;;24.75;12.10;;;;;;;-1.80;55.18;101031.03;3146647;28;20355;-68
2022/01/14 00:33:56;;;;;;;26.67;11.80;;;;;;;-1.78;55.43;101028.50;3143179;28;20513;-68
2022/01/14 00:35:28;;;;;;;27.15;11.18;;;;;;;-1.76;55.40;101019.19;3147498;28;20868;-68
2022/01/14 00:37:01;;;;;;;29.17;12.82;;;;;;;-1.78;55.71;101018.28;3146525;28;20047;-68
2022/01/14 00:38:33;;;;;;;24.83;10.97;;;;;;;-1.79;55.47;101012.31;3151291;28;20075;-67
2022/01/14 00:40:06;;;;;;;27.02;11.60;;;;;;;-1.75;55.71;101019.22;3147101;28;20762;-69
2022/01/14 00:41:39;;;;;;;26.15;11.88;;;;;;;-1.76;55.58;101020.06;3147460;28;20058;-69
2022/01/14 00:43:11;;;;;;;23.42;10.98;;;;;;;-1.76;55.77;101019.19;3148478;28;20342;-68
2022/01/14 00:44:44;;;;;;;23.88;11.20;;;;;;;-1.74;55.58;101013.31;3147617;28;20056;-69
2022/01/14 00:46:16;;;;;;;26.70;11.68;;;;;;;-1.74;55.82;101003.09;3146344;28;20163;-68
2022/01/14 00:47:48;;;;;;;30.25;12.25;;;;;;;-1.72;55.65;101003.97;3148225;28;20090;-68
2022/01/14 00:49:21;;;;;;;29.00;11.70;;;;;;;-1.75;55.76;101005.59;3147094;28;20501;-68
2022/01/14 00:50:54;;;;;;;26.85;11.85;;;;;;;-1.75;55.81;101009.00;3147955;28;20572;-67
2022/01/14 00:52:26;;;;;;;28.15;12.57;;;;;;;-1.75;55.88;101016.66;3147979;28;20062;-67
2022/01/14 00:53:58;;;;;;;24.48;11.30;;;;;;;-1.76;55.82;101004.75;3145839;28;20131;-67
2022/01/14 00:55:44;;;;;;;26.77;11.70;;;;;;;-1.73;55.88;101002.25;3144682;28;20052;-67
2022/01/14 00:57:28;;;;;;;26.30;11.65;;;;;;;-1.74;56.05;101003.09;3143962;28;20105;-66
2022/01/14 00:59:14;;;;;;;24.42;10.80;;;;;;;-1.75;55.99;101018.38;3144096;28;20055;-69
2022/01/14 01:00:47;;;;;;;22.42;10.23;;;;;;;-1.76;55.97;101012.41;3148100;28;20580;-70
2022/01/14 01:02:19;;;;;;;22.83;10.82;;;;;;;-1.75;55.78;101005.59;3146527;28;20131;-69
2022/01/14 01:03:51;;;;;;;25.33;10.63;;;;;;;-1.74;55.84;101015.00;3146630;28;20077;-70
2022/01/14 01:05:24;;;;;;;24.95;10.73;;;;;;;-1.71;55.85;101015.94;3147238;28;20353;-70
2022/01/14 01:06:56;;;;;;;22.10;10.45;;;;;;;-1.71;55.87;101020.19;3146371;28;20134;-70
2022/01/14 01:08:30;;;;;;;25.60;11.15;;;;;;;-1.72;55.76;101014.19;3144621;28;20055;-68
2022/01/14 01:10:02;;;;;;;25.73;10.82;;;;;;;-1.71;55.64;101010.84;3147544;28;20059;-69
2022/01/14 01:11:37;;;;;;;25.73;11.38;;;;;;;-1.71;55.71;101013.38;3146264;28;20167;-69
2022/01/14 01:13:16;;;;;;;27.45;11.65;;;;;;;-1.70;55.78;101004.88;3148493;28;20463;-69
2022/01/14 01:14:51;;;;;;;28.98;12.18;;;;;;;-1.75;56.02;101006.44;3145790;28;20121;-69
2022/01/14 01:16:25;;;;;;;26.60;11.55;;;;;;;-1.67;55.63;101002.41;3147720;28;20064;-69
2022/01/14 01:17:57;;;;;;;32.65;13.45;;;;;;;-1.69;55.57;100996.38;3146895;28;20610;-68
2022/01/14 01:19:29;;;;;;;28.92;12.68;;;;;;;-1.68;55.56;101003.25;3146556;28;20068;-68
2022/01/14 01:21:02;;;;;;;30.55;12.95;;;;;;;-1.68;55.31;101000.69;3145433;28;20086;-69
2022/01/14 01:22:34;;;;;;;27.83;13.02;;;;;;;-1.68;55.26;100998.13;3146539;28;20222;-70
2022/01/14 01:24:08;;;;;;;30.90;13.35;;;;;;;-1.67;55.10;100991.31;3145206;28;20054;-70
2022/01/14 01:25:45;;;;;;;30.92;12.63;;;;;;;-1.67;55.25;101001.53;3147216;28;20047;-70
2022/01/14 01:27:19;;;;;;;31.17;12.90;;;;;;;-1.67;55.02;100988.78;3146490;28;20524;-70
2022/01/14 01:29:01;;;;;;;29.95;12.95;;;;;;;-1.67;54.96;100997.28;3142960;28;20499;-70
2022/01/14 01:30:52;;;;;;;27.58;12.05;;;;;;;-1.70;54.97;100988.69;3141867;28;20079;-70
2022/01/14 01:32:25;;;;;;;30.50;12.98;;;;;;;-1.73;55.08;100984.38;3146230;28;20059;-70
2022/01/14 01:33:56;;;;;;;29.38;12.70;;;;;;;-1.69;55.08;100977.66;3147612;28;20525;-70
2022/01/14 01:35:29;;;;;;;29.45;12.73;;;;;;;-1.67;55.02;100974.31;3147656;28;20079;-68
2022/01/14 01:37:03;;;;;;;28.95;12.45;;;;;;;-1.73;54.85;100958.84;3145333;28;20582;-69
2022/01/14 01:38:35;;;;;;;29.70;12.05;;;;;;;-1.71;55.17;100967.41;3146902;28;20048;-70
2022/01/14 01:40:08;;;;;;;30.77;13.50;;;;;;;-1.88;55.05;100931.25;3146142;28;20609;-70
2022/01/14 01:41:41;;;;;;;;;;;;;;;-1.85;55.40;100956.88;3145800;28;20062;-69
2022/01/14 01:43:14;;;;;;;33.88;12.23;;;;;;;-1.79;55.49;100958.69;3147195;28;19935;-68
2022/01/14 01:44:47;;;;;;;30.42;12.48;;;;;;;-1.75;55.42;100968.16;3145846;28;20085;-68
2022/01/14 01:46:21;;;;;;;31.48;13.50;;;;;;;-1.72;55.33;100957.16;3141732;28;20489;-68
2022/01/14 01:47:55;;;;;;;30.60;13.25;;;;;;;-1.72;55.38;100959.69;3147479;28;20055;-68
2022/01/14 01:49:30;;;;;;;30.23;13.60;;;;;;;-1.72;55.42;100960.56;3146085;28;20044;-68
2022/01/14 01:51:05;;;;;;;27.70;13.35;;;;;;;-1.72;55.23;100963.13;3143950;28;20059;-68
2022/01/14 01:52:37;;;;;;;31.95;13.43;;;;;;;-1.76;55.51;100963.88;3140714;28;20048;-67
2022/01/14 01:54:10;;;;;;;30.17;13.00;;;;;;;-1.75;55.58;100957.94;3146230;28;20055;-68
2022/01/14 01:55:42;;;;;;;27.77;12.27;;;;;;;-1.73;55.58;100961.41;3145559;28;20511;-68
2022/01/14 01:57:14;;;;;;;30.30;14.02;;;;;;;-1.73;55.62;100953.75;3144441;28;20554;-71
2022/01/14 01:58:46;;;;;;;29.63;12.98;;;;;;;-1.72;55.74;100947.78;3146276;28;20048;-70
2022/01/14 02:00:22;;;;;;;26.52;13.43;;;;;;;-1.76;55.72;100940.91;3147482;28;20052;-69
2022/01/14 02:01:57;;;;;;;30.23;13.30;;;;;;;-1.70;55.74;100940.19;3146293;28;20055;-71
2022/01/14 02:03:29;;;;;;;31.35;13.90;;;;;;;-1.73;55.98;100935.84;3141925;28;20575;-70
2022/01/14 02:05:01;;;;;;;30.03;13.03;;;;;;;-1.74;55.92;100934.16;3146526;28;20062;-72
2022/01/14 02:06:34;;;;;;;31.20;13.75;;;;;;;-1.71;55.99;100934.22;3145709;28;20322;-70
2022/01/14 02:08:06;;;;;;;29.73;13.30;;;;;;;-1.71;55.74;100929.09;3146770;28;20052;-70
2022/01/14 02:09:38;;;;;;;31.52;12.95;;;;;;;-1.72;56.07;100927.34;3147505;28;20604;-70
2022/01/14 02:11:10;;;;;;;30.10;13.18;;;;;;;-1.73;56.05;100925.66;3146135;28;20590;-71
2022/01/14 02:12:49;;;;;;;30.58;13.38;;;;;;;-1.71;55.92;100928.25;3145034;28;20102;-71
2022/01/14 02:14:53;;;;;;;32.38;14.73;;;;;;;-1.71;56.00;100915.47;3146122;28;20052;-68
2022/01/14 02:16:34;;;;;;;32.28;13.27;;;;;;;-1.77;56.09;100912.78;3147380;28;20044;-70
2022/01/14 02:22:11;;;;;;;27.08;12.50;;;;;;;-1.80;56.19;100911.03;3134649;28;20052;-68
2022/01/14 02:23:47;;;;;;;34.67;13.55;;;;;;;-1.80;56.13;100905.91;3147782;28;20044;-68
2022/01/14 02:25:28;;;;;;;31.17;13.73;;;;;;;-1.80;56.07;100903.38;3145777;28;20800;-68
2022/01/14 02:27:01;;;;;;;32.55;14.07;;;;;;;-1.82;56.25;100905.00;3148659;28;20048;-68
2022/01/14 02:28:33;;;;;;;25.50;12.40;;;;;;;-1.80;56.07;100902.47;3145985;28;20048;-67
2022/01/14 02:30:06;;;;;;;30.40;14.30;;;;;;;-1.77;56.20;100902.56;3149340;28;20168;-68
2022/01/14 02:31:38;;;;;;;29.25;12.18;;;;;;;-1.79;56.22;100904.22;3149369;28;20059;-67
2022/01/14 02:33:11;;;;;;;32.65;13.80;;;;;;;-1.76;56.04;100894.06;3148725;28;20050;-67
2022/01/14 02:34:43;;;;;;;;;;;;;;;-1.94;56.31;100886.88;3149560;28;20113;-67
2022/01/14 02:36:17;;;;;;;33.70;13.60;;;;;;;-1.87;56.54;100888.72;3148519;28;19928;-67
2022/01/14 02:39:44;;;;;;;29.50;13.02;;;;;;;-1.85;56.41;100892.19;3148917;28;20617;-67
2022/01/14 02:41:18;;;;;;;33.38;14.13;;;;;;;-1.83;56.37;100887.97;3148628;28;20126;-67
2022/01/14 02:42:51;;;;;;;31.63;13.82;;;;;;;-1.79;56.29;100899.97;3150150;28;20135;-68
2022/01/14 02:44:26;;;;;;;35.63;14.18;;;;;;;-1.81;56.05;100888.84;3148923;28;20052;-67
2022/01/14 02:45:58;;;;;;;33.03;13.35;;;;;;;-1.79;56.17;100879.53;3148583;28;20048;-67
2022/01/14 02:47:30;;;;;;;39.25;14.40;;;;;;;-1.78;56.34;100888.06;3149028;28;20223;-67
2022/01/14 02:49:02;;;;;;;32.43;12.87;;;;;;;-1.78;56.20;100880.41;3149928;28;20059;-68
2022/01/14 02:50:40;;;;;;;35.00;13.85;;;;;;;-1.77;56.23;100872.78;3149022;28;20316;-67
2022/01/14 02:52:13;;;;;;;32.58;14.15;;;;;;;-1.75;56.11;100865.16;3149110;28;20090;-67
2022/01/14 02:53:57;;;;;;;33.80;14.43;;;;;;;-1.76;56.22;100863.44;3147839;28;20060;-67
2022/01/14 02:55:31;;;;;;;33.00;13.77;;;;;;;-1.84;56.23;100858.16;3142572;28;20506;-67
2022/01/14 02:57:04;;;;;;;35.20;14.43;;;;;;;-1.85;56.13;100846.22;3145317;28;20184;-67
2022/01/14 02:58:38;;;;;;;28.33;12.38;;;;;;;-1.99;55.84;100822.94;3147165;28;20047;-67
2022/01/14 03:00:11;;;;;;;26.65;12.30;;;;;;;-1.78;55.99;100849.75;3148758;28;20052;-68
2022/01/14 03:01:45;;;;;;;30.80;13.15;;;;;;;-1.83;56.06;100842.88;3149114;28;20393;-69
2022/01/14 03:03:22;;;;;;;29.63;12.63;;;;;;;-1.72;55.76;100852.44;3149700;28;20082;-67
2022/01/14 03:04:55;;;;;;;27.15;12.85;;;;;;;-1.70;55.69;100851.66;3149149;28;20047;-67
2022/01/14 03:06:30;;;;;;;28.08;12.00;;;;;;;-1.71;55.67;100852.50;3146171;28;20087;-67
2022/01/14 03:08:03;;;;;;;34.10;13.23;;;;;;;-1.72;55.72;100845.63;3143644;28;20086;-67
2022/01/14 03:09:37;;;;;;;34.45;13.07;;;;;;;-1.71;55.66;100841.41;3148746;28;20059;-67
2022/01/14 03:11:09;;;;;;;;;;;;;;;-1.88;55.81;100833.38;3147486;28;20073;-67
2022/01/14 03:12:42;;;;;;;27.27;11.50;;;;;;;-1.84;56.19;100830.06;3149886;28;19993;-67
2022/01/14 03:14:22;;;;;;;31.35;11.38;;;;;;;-1.74;55.93;100838.81;3147261;28;20243;-67
2022/01/14 03:15:54;;;;;;;26.75;11.50;;;;;;;-1.73;55.86;100832.84;3147008;28;20195;-67
2022/01/14 03:17:28;;;;;;;25.90;11.53;;;;;;;-1.79;55.83;100810.59;3148915;28;20062;-67
2022/01/14 03:19:06;;;;;;;31.45;12.45;;;;;;;-1.85;55.90;100795.16;3147203;28;20369;-67
2022/01/14 03:20:49;;;;;;;26.08;11.25;;;;;;;-1.67;55.77;100818.50;3148419;28;20561;-67
2022/01/14 03:22:27;;;;;;;25.77;11.45;;;;;;;-1.66;55.90;100822.78;3149133;28;21015;-67
2022/01/14 03:24:15;;;;;;;22.60;10.63;;;;;;;-1.73;55.93;100803.06;3146604;28;20501;-67
2022/01/14 03:25:50;;;;;;;27.25;11.35;;;;;;;-1.67;56.01;100805.75;3148057;28;20166;-67
2022/01/14 03:27:24;;;;;;;29.45;11.38;;;;;;;-1.65;56.07;100805.78;3146938;28;20063;-67
2022/01/14 03:28:56;;;;;;;31.83;12.55;;;;;;;-1.62;56.07;100799.06;3144823;28;20609;-67
2022/01/14 03:30:28;;;;;;;27.27;11.75;;;;;;;-1.62;56.14;100795.63;3149415;28;20048;-67
2022/01/14 03:32:01;;;;;;;27.20;11.05;;;;;;;-1.60;55.94;100796.50;3146753;28;20239;-67
2022/01/14 03:33:33;;;;;;;25.58;10.95;;;;;;;-1.59;56.42;100794.84;3146925;28;20136;-66
2022/01/14 03:35:06;;;;;;;24.95;10.88;;;;;;;-1.61;55.89;100782.88;3147617;28;20159;-67
2022/01/14 03:36:39;;;;;;;20.58;9.70;;;;;;;-1.60;56.13;100788.84;3147604;28;20060;-67
2022/01/14 03:38:11;;;;;;;22.02;10.25;;;;;;;-1.66;56.32;100774.25;3148091;28;20653;-67
2022/01/14 03:39:44;;;;;;;22.70;10.02;;;;;;;-1.58;55.96;100784.63;3146202;28;20048;-67
2022/01/14 03:41:16;;;;;;;;;;;;;;;-1.76;56.31;100782.56;3147481;28;20047;-67
2022/01/14 03:42:47;;;;;;;18.42;8.05;;;;;;;-1.71;56.26;100775.03;3149648;28;19924;-68
2022/01/14 03:44:20;;;;;;;22.48;9.73;;;;;;;-1.66;56.04;100763.19;3148375;28;20130;-67
2022/01/14 03:45:52;;;;;;;21.60;9.23;;;;;;;-1.59;55.95;100769.31;3145764;28;20113;-68
2022/01/14 03:47:23;;;;;;;22.45;9.15;;;;;;;-1.60;55.97;100760.75;3149361;28;20158;-68
2022/01/14 03:48:55;;;;;;;21.02;9.80;;;;;;;-1.61;55.75;100747.13;3148253;28;20628;-67
2022/01/14 03:50:27;;;;;;;19.05;9.05;;;;;;;-1.52;55.94;100754.09;3147105;28;20130;-69
2022/01/14 03:51:59;;;;;;;18.13;9.02;;;;;;;-1.52;55.74;100754.09;3147730;28;20546;-69
2022/01/14 03:53:31;;;;;;;22.85;9.43;;;;;;;-1.47;55.56;100755.06;3147905;28;20048;-69
2022/01/14 03:55:04;;;;;;;21.50;9.27;;;;;;;-1.44;55.52;100760.22;3146265;28;20052;-68
2022/01/14 03:56:36;;;;;;;19.55;9.35;;;;;;;-1.45;55.34;100755.97;3143816;28;20064;-69
2022/01/14 03:58:09;;;;;;;19.63;9.05;;;;;;;-1.49;55.15;100743.94;3147354;28;20052;-66
2022/01/14 03:59:41;;;;;;;23.07;10.37;;;;;;;-1.42;55.44;100756.03;3143757;28;20084;-66
2022/01/14 04:01:14;;;;;;;22.75;9.23;;;;;;;-1.39;55.33;100752.63;3147954;28;20394;-68
2022/01/14 04:02:47;;;;;;;25.13;10.27;;;;;;;-1.65;55.27;100716.41;3147067;28;20056;-69
2022/01/14 04:04:19;;;;;;;23.80;9.82;;;;;;;-1.38;55.18;100756.94;3148878;28;20050;-68
2022/01/14 04:05:51;;;;;;;20.90;9.55;;;;;;;-1.38;54.88;100762.03;3147397;28;20135;-68
2022/01/14 04:07:23;;;;;;;22.88;10.10;;;;;;;-1.33;54.99;100760.44;3148416;28;20048;-67
2022/01/14 04:08:55;;;;;;;21.45;9.75;;;;;;;-1.31;54.74;100760.44;3148548;28;20079;-67
2022/01/14 04:10:29;;;;;;;21.33;8.95;;;;;;;-1.29;54.64;100757.09;3147280;28;20199;-67
2022/01/14 04:12:02;;;;;;;23.17;9.90;;;;;;;-1.30;54.63;100752.84;3144337;28;20056;-67
2022/01/14 04:13:43;;;;;;;21.23;9.13;;;;;;;-1.25;54.63;100753.75;3148337;28;20242;-68
2022/01/14 04:17:05;;;;;;;23.92;9.23;;;;;;;-1.28;54.62;100758.81;3147751;28;20049;-69
2022/01/14 04:18:38;;;;;;;23.40;10.38;;;;;;;-1.25;54.51;100756.31;3146681;28;20598;-70
2022/01/14 04:20:10;;;;;;;24.48;10.93;;;;;;;-1.20;54.38;100759.81;3145160;28;20060;-70
2022/01/14 04:21:42;;;;;;;21.63;9.82;;;;;;;-1.40;54.53;100721.13;3147075;28;20083;-69
2022/01/14 04:23:16;;;;;;;24.27;10.10;;;;;;;-1.19;54.38;100747.91;3145783;28;20056;-70
2022/01/14 04:24:48;;;;;;;23.48;9.48;;;;;;;-1.17;54.10;100748.78;3147454;28;20139;-70
2022/01/14 04:26:21;;;;;;;23.08;10.23;;;;;;;-1.23;54.27;100739.31;3146804;28;20060;-69
2022/01/14 04:27:52;;;;;;;28.13;11.80;;;;;;;-1.41;54.19;100710.88;3143361;28;20805;-69
2022/01/14 04:29:24;;;;;;;35.65;12.05;;;;;;;-1.24;54.50;100737.59;3145356;28;20048;-70
2022/01/14 04:30:56;;;;;;;29.15;12.32;;;;;;;-1.13;54.36;100748.00;3147743;28;20060;-68
2022/01/14 04:32:28;;;;;;;27.02;11.40;;;;;;;-1.12;54.38;100752.28;3143268;28;20060;-68
2022/01/14 04:34:00;;;;;;;21.77;10.75;;;;;;;-1.11;54.57;100737.81;3148225;28;20056;-68
2022/01/14 04:35:33;;;;;;;24.40;10.30;;;;;;;-1.09;54.11;100739.56;3145569;28;20117;-68
2022/01/14 04:37:05;;;;;;;20.67;9.80;;;;;;;-1.10;54.36;100735.28;3146963;28;20640;-67
2022/01/14 04:38:37;;;;;;;21.38;9.20;;;;;;;-1.11;54.45;100728.44;3146775;28;20048;-67
2022/01/14 04:40:12;;;;;;;21.98;9.80;;;;;;;-1.09;54.48;100731.03;3145971;28;20052;-68
2022/01/14 04:41:46;;;;;;;20.70;9.73;;;;;;;-1.17;54.39;100713.88;3146765;28;20121;-70
2022/01/14 04:43:20;;;;;;;;;;;;;;;-1.25;54.68;100728.19;3147261;28;20048;-68
2022/01/14 04:44:55;;;;;;;24.98;9.95;;;;;;;-1.22;54.78;100719.72;3149584;28;20401;-68
2022/01/14 04:46:59;;;;;;;21.48;9.40;;;;;;;-1.15;54.84;100724.13;3157685;28;20048;-70
2022/01/14 04:48:33;;;;;;;23.05;9.80;;;;;;;-1.22;54.84;100720.59;3155716;28;20428;-68
2022/01/14 04:50:06;;;;;;;22.90;9.70;;;;;;;-1.46;54.58;100674.16;3152301;28;20052;-68
2022/01/14 04:51:38;;;;;;;22.58;10.20;;;;;;;-1.13;54.68;100719.88;3156941;28;20125;-70
2022/01/14 04:53:10;;;;;;;22.92;10.15;;;;;;;-1.15;54.70;100726.69;3155449;28;20064;-70
2022/01/14 04:54:42;;;;;;;27.42;10.32;;;;;;;-1.10;54.77;100719.94;3152166;28;20044;-69
2022/01/14 04:56:14;;;;;;;24.85;10.35;;;;;;;-1.10;54.60;100716.53;3155341;28;20055;-68
2022/01/14 04:57:48;;;;;;;23.88;10.50;;;;;;;-1.12;54.71;100708.84;3157122;28;20044;-70
2022/01/14 04:59:20;;;;;;;21.10;10.15;;;;;;;-1.09;54.65;100715.72;3157776;28;20667;-70
2022/01/14 05:00:52;;;;;;;24.48;10.57;;;;;;;-1.10;54.78;100713.97;3156189;28;20048;-70
2022/01/14 05:02:25;;;;;;;23.50;10.90;;;;;;;-1.07;54.76;100726.78;3152327;28;20487;-68
2022/01/14 05:03:58;;;;;;;25.40;11.53;;;;;;;-1.08;54.69;100728.50;3155976;28;20043;-68
2022/01/14 05:05:33;;;;;;;;;;;;;;;-1.44;55.04;100704.03;3156203;28;20082;-68
2022/01/14 05:07:05;;;;;;;27.50;10.70;;;;;;;-1.23;55.24;100734.22;3153051;28;20416;-69
2022/01/14 05:08:39;;;;;;;24.42;10.57;;;;;;;-1.17;55.11;100739.41;3156921;28;20048;-68
2022/01/14 05:10:22;;;;;;;27.88;12.38;;;;;;;-1.18;55.09;100737.72;3156412;28;20048;-70
2022/01/14 05:11:58;;;;;;;26.65;11.30;;;;;;;-1.18;54.96;100731.75;3154545;28;20080;-68
2022/01/14 05:13:32;;;;;;;23.95;10.90;;;;;;;-1.33;54.92;100699.13;3156654;28;20488;-68
2022/01/14 05:15:04;;;;;;;;;;;;;;;-1.34;55.08;100728.03;3156417;28;20147;-68
2022/01/14 05:16:36;;;;;;;22.42;10.70;;;;;;;-1.39;55.50;100719.41;3157279;28;20443;-68
2022/01/14 05:18:08;;;;;;;22.65;10.40;;;;;;;-1.38;55.25;100710.94;3156094;28;20420;-69
2022/01/14 05:19:40;;;;;;;26.05;10.80;;;;;;;-1.25;55.28;100728.19;3155367;28;20127;-69
2022/01/14 05:21:13;;;;;;;20.20;10.45;;;;;;;-1.27;55.14;100719.66;3156980;28;20083;-69
2022/01/14 05:22:45;;;;;;;22.10;10.30;;;;;;;-1.16;55.22;100730.06;3155717;28;20740;-69
2022/01/14 05:24:17;;;;;;;22.75;10.52;;;;;;;-1.22;54.90;100725.69;3152558;28;20094;-69
2022/01/14 05:25:49;;;;;;;23.20;10.07;;;;;;;-1.10;54.92;100742.94;3156817;28;20052;-69
2022/01/14 05:27:21;;;;;;;23.45;10.15;;;;;;;-1.09;54.95;100744.69;3154893;28;20052;-69
2022/01/14 05:28:54;;;;;;;22.95;10.43;;;;;;;-1.15;54.94;100722.44;3156677;28;20109;-69
2022/01/14 05:30:27;;;;;;;24.00;10.95;;;;;;;-1.10;54.86;100727.59;3156678;28;20457;-69
2022/01/14 05:32:03;;;;;;;26.95;11.07;;;;;;;-1.09;54.93;100715.72;3155619;28;20072;-69
2022/01/14 05:33:35;;;;;;;23.30;11.10;;;;;;;-1.09;54.56;100719.13;3155178;28;20075;-69
2022/01/14 05:35:07;;;;;;;22.75;9.77;;;;;;;-1.05;54.80;100717.47;3156336;28;20043;-69
2022/01/14 05:36:39;;;;;;;22.67;9.75;;;;;;;-1.06;54.60;100708.09;3153498;28;20105;-69
2022/01/14 05:38:11;;;;;;;25.00;10.52;;;;;;;-1.05;54.42;100708.09;3154064;28;20063;-69
2022/01/14 05:39:43;;;;;;;30.08;10.85;;;;;;;-1.36;54.48;100645.41;3155646;28;20195;-69
2022/01/14 05:41:18;;;;;;;24.90;10.23;;;;;;;-0.98;54.39;100701.38;3152528;28;20070;-68
2022/01/14 05:42:50;;;;;;;30.73;12.13;;;;;;;-0.98;54.37;100709.91;3158138;28;20054;-69
2022/01/14 05:44:24;;;;;;;27.17;11.30;;;;;;;-0.95;54.33;100704.00;3155380;28;20048;-69
2022/01/14 05:45:56;;;;;;;25.52;11.80;;;;;;;-0.96;54.34;100707.38;3154521;28;20113;-69
2022/01/14 05:47:28;;;;;;;23.60;10.95;;;;;;;-0.96;54.41;100702.28;3156459;28;20139;-69
2022/01/14 05:49:00;;;;;;;27.00;10.27;;;;;;;-0.94;54.30;100691.25;3155452;28;20047;-68
2022/01/14 05:50:31;;;;;;;22.70;9.93;;;;;;;-0.98;54.31;100689.44;3155133;28;20052;-68
2022/01/14 05:52:04;;;;;;;26.17;9.18;;;;;;;-1.10;54.55;100657.72;3155784;28;20051;-69
2022/01/14 05:53:36;;;;;;;25.23;8.40;;;;;;;-0.86;54.25;100690.50;3155009;28;20108;-68
2022/01/14 05:55:10;;;;;;;21.50;8.48;;;;;;;-0.87;54.20;100684.53;3151177;28;20351;-68
2022/01/14 05:56:42;;;;;;;20.83;8.90;;;;;;;-0.84;54.28;100676.88;3154129;28;20044;-69
2022/01/14 05:58:14;;;;;;;21.83;8.55;;;;;;;-0.84;54.46;100682.00;3152386;28;20056;-69
2022/01/14 05:59:47;;;;;;;20.17;8.02;;;;;;;-0.84;54.21;100664.09;3156450;28;20491;-69
2022/01/14 06:01:19;;;;;;;22.10;8.70;;;;;;;-0.84;54.19;100666.66;3155238;28;20497;-69
2022/01/14 06:02:52;;;;;;;17.77;8.18;;;;;;;-0.78;54.07;100671.00;3153989;28;20047;-69
2022/01/14 06:04:24;;;;;;;20.48;7.75;;;;;;;-0.75;54.05;100673.63;3156445;28;20054;-70
2022/01/14 06:05:56;;;;;;;18.90;7.90;;;;;;;-0.70;53.94;100646.41;3155556;28;20048;-69
2022/01/14 06:07:28;;;;;;;16.70;7.85;;;;;;;-0.66;53.79;100662.66;3154924;28;20048;-68
2022/01/14 06:08:59;;;;;;;14.73;6.57;;;;;;;-0.62;53.75;100646.50;3156133;28;20075;-69
2022/01/14 06:10:31;;;;;;;17.65;7.00;;;;;;;-0.59;53.65;100660.22;3155713;28;20055;-69
2022/01/14 06:12:04;;;;;;;18.95;7.28;;;;;;;-0.57;53.46;100655.09;3150692;28;20098;-69
2022/01/14 06:13:35;;;;;;;14.23;6.43;;;;;;;-0.56;53.48;100646.59;3156011;28;20097;-69
2022/01/14 06:15:10;;;;;;;23.25;7.60;;;;;;;-0.81;53.54;100584.88;3155304;28;20040;-69
2022/01/14 06:16:42;;;;;;;15.48;6.90;;;;;;;-0.47;53.32;100626.25;3154052;28;20059;-69
2022/01/14 06:18:14;;;;;;;17.95;7.18;;;;;;;-0.42;53.29;100624.59;3156189;28;20087;-69
2022/01/14 06:19:46;;;;;;;19.02;7.15;;;;;;;-0.36;52.91;100631.50;3154032;28;20109;-69
2022/01/14 06:21:18;;;;;;;17.48;7.07;;;;;;;-0.35;52.99;100623.84;3156367;28;20444;-68
2022/01/14 06:22:50;;;;;;;18.75;6.20;;;;;;;-0.30;52.84;100632.44;3155558;28;20052;-69
2022/01/14 06:24:22;;;;;;;17.27;6.35;;;;;;;-0.22;53.04;100634.25;3157989;28;20134;-69
2022/01/14 06:25:54;;;;;;;16.15;6.82;;;;;;;-0.11;52.96;100627.56;3157388;28;20385;-69
2022/01/14 06:27:26;;;;;;;25.05;6.95;;;;;;;0.02;52.79;100611.47;3155597;28;20543;-69
2022/01/14 06:28:58;;;;;;;16.35;6.68;;;;;;;0.31;52.78;100613.47;3150021;28;20053;-69
2022/01/14 06:30:31;;;;;;;14.18;6.60;;;;;;;0.61;52.58;100606.06;3155817;28;20472;-69
2022/01/14 06:32:03;;;;;;;17.00;6.38;;;;;;;0.81;52.19;100597.66;3155162;28;20043;-69
2022/01/14 06:33:35;;;;;;;14.65;6.35;;;;;;;1.06;51.60;100594.41;3152806;28;20520;-69
2022/01/14 06:35:08;;;;;;;14.00;5.93;;;;;;;1.28;51.23;100600.53;3155953;28;20052;-69
2022/01/14 06:36:40;;;;;;;15.15;6.18;;;;;;;1.55;50.84;100611.78;3154568;28;20052;-69
2022/01/14 06:38:11;;;;;;;18.02;6.25;;;;;;;1.76;50.58;100611.88;3155339;28;20109;-69
2022/01/14 06:39:44;;;;;;;11.18;5.60;;;;;;;1.93;50.02;100608.53;3155753;28;20090;-69
2022/01/14 06:41:15;;;;;;;13.65;6.20;;;;;;;2.13;49.79;100603.41;3155257;28;20048;-70
2022/01/14 06:42:47;;;;;;;13.45;5.80;;;;;;;2.15;49.55;100583.72;3156001;28;20048;-70
2022/01/14 06:44:19;;;;;;;12.20;5.90;;;;;;;2.50;49.29;100606.91;3154226;28;20055;-70
2022/01/14 06:45:52;;;;;;;13.05;6.60;;;;;;;2.62;48.53;100588.06;3150567;28;20048;-67
2022/01/14 06:47:25;;;;;;;12.73;6.38;;;;;;;2.80;48.51;100597.47;3156364;28;20109;-69
2022/01/14 06:48:57;;;;;;;14.75;6.22;;;;;;;2.89;47.90;100582.03;3155436;28;20123;-70
2022/01/14 06:50:29;;;;;;;12.05;5.78;;;;;;;3.09;47.79;100589.72;3149436;28;20109;-70
2022/01/14 06:52:00;;;;;;;15.38;6.40;;;;;;;3.18;47.20;100587.97;3155361;28;20067;-69
2022/01/14 06:53:32;;;;;;;15.60;6.18;;;;;;;3.26;46.75;100584.53;3155309;28;20063;-68
2022/01/14 06:55:08;;;;;;;13.55;6.43;;;;;;;3.42;46.42;100581.91;3156430;28;20047;-68
2022/01/14 06:56:40;;;;;;;14.40;5.82;;;;;;;3.54;46.26;100588.72;3159641;28;20052;-68
2022/01/14 06:58:12;;;;;;;16.73;6.75;;;;;;;3.60;45.88;100588.69;3155411;28;20590;-68
2022/01/14 06:59:44;;;;;;;14.60;6.45;;;;;;;3.77;45.95;100598.09;3162069;28;20143;-68
2022/01/14 07:01:17;;;;;;;11.65;5.88;;;;;;;3.71;45.56;100565.47;3151668;28;20379;-62
2022/01/14 07:02:50;;;;;;;12.77;5.72;;;;;;;3.95;45.52;100599.72;3153947;28;20052;-70
2022/01/14 07:04:21;;;;;;;14.38;6.38;;;;;;;4.01;45.13;100597.09;3157352;28;20109;-69
2022/01/14 07:05:53;;;;;;;12.15;5.88;;;;;;;4.04;44.61;100599.66;3157199;28;20417;-69
2022/01/14 07:07:25;;;;;;;14.88;6.63;;;;;;;4.08;44.53;100609.97;3153790;28;20501;-69
2022/01/14 07:08:57;;;;;;;13.60;6.25;;;;;;;4.14;44.35;100611.66;3158533;28;20052;-71
2022/01/14 07:10:34;;;;;;;16.83;6.32;;;;;;;4.23;44.27;100606.44;3157310;28;20052;-71
2022/01/14 07:12:07;;;;;;;13.68;7.28;;;;;;;4.25;44.19;100599.53;3156455;28;20055;-69
2022/01/14 07:13:39;;;;;;;15.02;7.03;;;;;;;4.30;44.15;100605.50;3158003;28;20118;-68
2022/01/14 07:15:13;;;;;;;17.55;7.32;;;;;;;4.40;43.94;100606.28;3157774;28;20197;-69
2022/01/14 07:16:47;;;;;;;;;;;;;;;4.29;44.09;100618.44;3158873;28;20053;-70
2022/01/14 07:18:19;;;;;;;14.63;6.95;;;;;;;4.44;44.07;100625.22;3155268;28;20378;-69
2022/01/14 07:19:53;;;;;;;15.10;7.30;;;;;;;4.55;43.67;100603.63;3155886;28;20529;-70
2022/01/14 07:21:25;;;;;;;15.85;7.05;;;;;;;4.66;43.64;100621.59;3158181;28;20468;-69
2022/01/14 07:22:57;;;;;;;14.63;6.25;;;;;;;4.76;43.39;100609.47;3154854;28;20047;-70
2022/01/14 07:24:29;;;;;;;18.83;6.90;;;;;;;4.84;42.93;100593.91;3153489;28;20489;-68